Time;durP1;ratioP1;P1;durP2;ratioP2;P2;SDS_P1;SDS_P2;PMS_P1;PMS_P2;Temp;Humidity;BMP_temperature;BMP_pressure;BME280_temperature;BME280_humidity;BME280_pressure;Samples;Min_cycle;Max_cycle;Signal;HPM_P1;HPM_P2
2023/10/20 00:01:32;;;;;;;3.50;3.08;;;;;;;13.35;100.00;92768.22;6308127;22;20061;-79
2023/10/20 00:03:57;;;;;;;3.45;2.70;;;;;;;13.36;100.00;92763.75;6308347;22;20087;-79
2023/10/20 00:06:23;;;;;;;3.40;3.10;;;;;;;13.38;100.00;92756.38;6309662;22;20023;-79
2023/10/20 00:08:48;;;;;;;3.22;3.00;;;;;;;13.40;100.00;92751.66;6310372;22;20025;-78
2023/10/20 00:11:14;;;;;;;4.97;3.03;;;;;;;13.37;100.00;92768.78;6283807;22;20014;-79
2023/10/20 00:13:40;;;;;;;4.07;3.05;;;;;;;13.38;100.00;92761.66;6309997;22;20283;-79
2023/10/20 00:16:06;;;;;;;6.40;3.17;;;;;;;13.37;100.00;92762.72;6310037;22;20003;-79
2023/10/20 00:18:31;;;;;;;2.67;2.47;;;;;;;13.36;100.00;92751.31;6308246;22;20000;-79
2023/10/20 00:20:57;;;;;;;2.97;2.78;;;;;;;13.39;100.00;92740.31;6309488;22;20360;-79
2023/10/20 00:23:23;;;;;;;3.97;2.97;;;;;;;13.38;100.00;92741.34;6310017;22;19994;-78
2023/10/20 00:25:49;;;;;;;4.20;2.90;;;;;;;13.37;100.00;92754.78;6310341;22;20085;-79
2023/10/20 00:28:14;;;;;;;4.45;4.00;;;;;;;13.38;100.00;92751.09;6310111;22;19999;-79
2023/10/20 00:30:41;;;;;;;3.88;3.20;;;;;;;13.38;100.00;92725.50;6309687;22;19999;-79
2023/10/20 00:33:07;;;;;;;4.25;3.10;;;;;;;13.42;100.00;92726.63;6309731;22;20347;-79
2023/10/20 00:35:32;;;;;;;4.60;3.40;;;;;;;13.39;100.00;92711.25;6307693;22;20003;-78
2023/10/20 00:37:58;;;;;;;3.50;3.20;;;;;;;13.37;100.00;92691.38;6283158;22;20011;-79
2023/10/20 00:40:24;;;;;;;3.97;3.60;;;;;;;13.33;100.00;92697.13;6310295;22;19995;-78
2023/10/20 00:42:50;;;;;;;4.63;3.42;;;;;;;13.43;100.00;92688.63;6309004;22;20452;-79
2023/10/20 00:45:15;;;;;;;4.28;3.88;;;;;;;13.35;100.00;92704.78;6310149;22;19991;-79
2023/10/20 00:47:44;;;;;;;6.00;3.13;;;;;;;13.42;100.00;92697.56;6310229;22;19995;-79
2023/10/20 00:50:13;;;;;;;4.68;3.17;;;;;;;13.40;100.00;92699.63;6310467;22;20393;-78
2023/10/20 00:52:50;;;;;;;3.63;3.33;;;;;;;13.32;100.00;92692.06;6310118;22;19999;-79
2023/10/20 00:55:15;;;;;;;4.60;3.20;;;;;;;13.30;100.00;92684.38;6309922;22;20317;-79
2023/10/20 00:57:43;;;;;;;5.20;3.20;;;;;;;13.32;100.00;92689.41;6308545;22;19999;-79
2023/10/20 01:00:09;;;;;;;3.40;3.10;;;;;;;13.31;100.00;92680.69;6309070;22;20156;-79
2023/10/20 01:02:36;;;;;;;3.70;3.33;;;;;;;13.31;100.00;92669.31;6310085;22;20002;-79
2023/10/20 01:05:05;;;;;;;3.17;2.95;;;;;;;13.31;100.00;92653.47;6309157;22;20042;-79
2023/10/20 01:07:32;;;;;;;3.10;2.90;;;;;;;13.28;100.00;92640.72;6283130;22;20049;-78
2023/10/20 01:10:04;;;;;;;7.03;3.03;;;;;;;13.30;100.00;92630.72;6308865;22;20003;-78
2023/10/20 01:12:33;;;;;;;3.10;2.90;;;;;;;13.39;100.00;92621.41;6309602;22;19998;-78
2023/10/20 01:14:59;;;;;;;5.75;2.70;;;;;;;13.43;100.00;92603.25;6309446;22;20007;-78
2023/10/20 01:17:29;;;;;;;4.00;2.90;;;;;;;13.34;100.00;92608.06;6309696;22;20137;-78
2023/10/20 01:19:55;;;;;;;2.90;2.80;;;;;;;13.32;100.00;92594.31;6282396;22;20060;-78
2023/10/20 01:22:21;;;;;;;3.72;3.05;;;;;;;13.29;100.00;92578.94;6309529;22;20003;-77
2023/10/20 01:24:47;;;;;;;3.20;2.90;;;;;;;13.27;100.00;92563.31;6309381;22;20052;-77
2023/10/20 01:27:12;;;;;;;5.70;2.70;;;;;;;13.22;100.00;92571.13;6309112;22;19999;-77
2023/10/20 01:29:38;;;;;;;3.28;2.38;;;;;;;13.31;100.00;92532.75;6308471;22;20003;-78
2023/10/20 01:32:04;;;;;;;2.30;2.10;;;;;;;13.27;100.00;92549.31;6309955;22;20025;-77
2023/10/20 01:34:29;;;;;;;4.15;2.70;;;;;;;13.24;100.00;92539.22;6309107;22;20047;-77
2023/10/20 01:36:54;;;;;;;2.50;2.30;;;;;;;13.21;100.00;92542.31;6309635;22;20018;-77
2023/10/20 01:39:20;;;;;;;3.92;2.30;;;;;;;13.18;100.00;92525.09;6282324;22;20003;-78
2023/10/20 01:41:46;;;;;;;3.95;2.33;;;;;;;13.22;100.00;92505.09;6309383;22;20141;-77
2023/10/20 01:44:13;;;;;;;2.17;1.90;;;;;;;13.26;100.00;92495.69;6308325;22;20029;-77
2023/10/20 01:46:39;;;;;;;4.72;1.90;;;;;;;13.23;100.00;92484.78;6308873;22;20391;-77
2023/10/20 01:49:05;;;;;;;2.20;2.00;;;;;;;13.28;100.00;92472.47;6309138;22;20048;-77
2023/10/20 01:51:31;;;;;;;2.03;1.92;;;;;;;13.35;100.00;92480.22;6308869;22;20006;-78
2023/10/20 01:53:57;;;;;;;3.47;1.83;;;;;;;13.23;100.00;92497.97;6308761;22;20009;-77
2023/10/20 01:56:22;;;;;;;3.33;2.00;;;;;;;13.18;100.00;92493.41;6309492;22;20027;-77
2023/10/20 01:58:47;;;;;;;6.53;2.05;;;;;;;13.17;100.00;92497.09;6306695;22;20003;-77
2023/10/20 02:01:13;;;;;;;2.25;2.00;;;;;;;13.16;100.00;92477.81;6308698;22;20014;-78
2023/10/20 02:03:38;;;;;;;2.35;2.00;;;;;;;13.17;100.00;92494.44;6304336;22;20011;-77
2023/10/20 02:06:04;;;;;;;4.88;1.90;;;;;;;13.13;100.00;92490.69;6308456;22;20417;-77
2023/10/20 02:08:30;;;;;;;3.67;2.00;;;;;;;13.18;100.00;92477.56;6309650;22;20026;-77
2023/10/20 02:10:55;;;;;;;2.03;1.92;;;;;;;13.18;100.00;92477.56;6281627;22;20404;-77
2023/10/20 02:13:21;;;;;;;5.95;1.98;;;;;;;13.17;100.00;92489.16;6309110;22;20380;-77
2023/10/20 02:15:53;;;;;;;4.57;2.10;;;;;;;13.18;100.00;92467.81;6306529;22;20007;-77
2023/10/20 02:18:18;;;;;;;1.95;1.70;;;;;;;13.20;100.00;92496.59;6308365;22;19995;-77
2023/10/20 02:20:43;;;;;;;2.78;1.85;;;;;;;13.18;100.00;92481.00;6309174;22;20306;-77
2023/10/20 02:23:10;;;;;;;5.32;3.15;;;;;;;13.29;100.00;92452.13;6308773;22;20129;-77
2023/10/20 02:25:36;;;;;;;5.47;4.93;;;;;;;13.30;100.00;92437.88;6309227;22;19995;-78
2023/10/20 02:28:02;;;;;;;3.70;1.85;;;;;;;13.33;100.00;92445.31;6308464;22;19999;-77
2023/10/20 02:30:33;;;;;;;2.15;1.60;;;;;;;13.32;100.00;92452.47;6308707;22;20033;-77
2023/10/20 02:32:59;;;;;;;1.92;1.40;;;;;;;13.31;100.00;92463.25;6309050;22;20033;-77
2023/10/20 02:35:24;;;;;;;1.67;1.40;;;;;;;13.29;100.00;92473.25;6308117;22;20023;-77
2023/10/20 02:37:50;;;;;;;5.30;1.80;;;;;;;13.29;100.00;92452.13;6308612;22;19999;-77
2023/10/20 02:40:15;;;;;;;1.58;1.33;;;;;;;13.43;100.00;92444.72;6308913;22;20006;-78
2023/10/20 02:42:43;;;;;;;2.40;1.10;;;;;;;13.82;100.00;92431.59;6308196;22;20064;-77
2023/10/20 02:45:10;;;;;;;4.45;0.98;;;;;;;13.97;100.00;92407.19;6309169;22;20333;-78
2023/10/20 02:47:37;;;;;;;0.88;0.88;;;;;;;14.28;100.00;92407.63;6309321;22;20041;-77
2023/10/20 02:50:02;;;;;;;0.85;0.80;;;;;;;14.68;100.00;92379.22;6308537;22;19999;-76
2023/10/20 02:52:28;;;;;;;6.97;1.13;;;;;;;14.91;100.00;92372.06;6309329;22;20025;-76
2023/10/20 02:54:54;;;;;;;1.52;1.00;;;;;;;15.06;100.00;92374.06;6307818;22;19999;-76
2023/10/20 02:57:20;;;;;;;0.85;0.70;;;;;;;15.24;100.00;92388.00;6308287;22;20002;-79
2023/10/20 02:59:47;;;;;;;0.70;0.70;;;;;;;15.40;100.00;92412.78;6307823;22;19999;-78
2023/10/20 03:02:17;;;;;;;0.70;0.70;;;;;;;15.64;100.00;92421.19;6309142;22;20003;-77
2023/10/20 03:04:42;;;;;;;0.80;0.80;;;;;;;15.76;100.00;92432.41;6275835;22;20081;-77
2023/10/20 03:07:08;;;;;;;0.90;0.90;;;;;;;15.94;100.00;92411.88;6277600;22;20000;-76
2023/10/20 03:09:35;;;;;;;0.65;0.60;;;;;;;16.17;100.00;92416.00;6278691;22;20000;-78
2023/10/20 03:12:00;;;;;;;1.30;0.70;;;;;;;16.36;100.00;92431.50;6278069;22;20000;-77
2023/10/20 03:14:26;;;;;;;1.70;0.98;;;;;;;16.34;100.00;92409.72;6277622;22;20011;-77
2023/10/20 03:16:51;;;;;;;0.77;0.77;;;;;;;16.36;100.00;92404.16;6275810;22;20004;-78
2023/10/20 03:19:17;;;;;;;3.22;0.80;;;;;;;16.18;100.00;92417.63;6277912;22;20004;-77
2023/10/20 03:21:42;;;;;;;2.17;1.00;;;;;;;16.19;100.00;92447.59;6277542;22;20000;-77
2023/10/20 03:24:09;;;;;;;0.93;0.70;;;;;;;16.38;100.00;92441.84;6278305;22;20008;-77
2023/10/20 03:26:34;;;;;;;0.80;0.80;;;;;;;16.32;100.00;92475.53;6277329;22;20019;-77
2023/10/20 03:29:00;;;;;;;0.60;0.60;;;;;;;16.17;100.00;92468.28;6277071;22;20003;-78
2023/10/20 03:31:25;;;;;;;1.75;0.70;;;;;;;16.14;100.00;92476.75;6277486;22;20000;-77
2023/10/20 03:33:51;;;;;;;2.67;0.75;;;;;;;16.32;100.00;92480.84;6277719;22;20000;-77
2023/10/20 03:36:16;;;;;;;1.05;0.70;;;;;;;16.31;100.00;92490.66;6275587;22;20018;-77
2023/10/20 03:38:42;;;;;;;2.88;0.80;;;;;;;16.40;100.00;92517.53;6276175;22;20071;-78
2023/10/20 03:41:11;;;;;;;1.08;0.80;;;;;;;16.79;100.00;92511.09;6277699;22;20030;-77
2023/10/20 03:43:37;;;;;;;2.13;1.08;;;;;;;16.98;100.00;92537.25;6279130;22;20301;-77
2023/10/20 03:46:04;;;;;;;0.80;0.80;;;;;;;16.98;100.00;92530.06;6279867;22;20018;-78
2023/10/20 03:48:31;;;;;;;0.95;0.70;;;;;;;17.13;100.00;92509.94;6280569;22;20413;-78
2023/10/20 03:50:58;;;;;;;0.93;0.80;;;;;;;16.93;100.00;92542.53;6280138;22;19996;-78
2023/10/20 03:53:27;;;;;;;1.02;0.75;;;;;;;16.67;100.00;92571.59;6277998;22;20026;-78
2023/10/20 03:56:04;;;;;;;0.52;0.52;;;;;;;16.71;100.00;92588.63;6280025;22;20018;-78
2023/10/20 03:58:30;;;;;;;0.75;0.73;;;;;;;16.54;100.00;92571.00;6279253;22;20006;-78
2023/10/20 04:00:57;;;;;;;0.85;0.82;;;;;;;16.37;100.00;92565.03;6279227;22;20004;-79
2023/10/20 04:03:25;;;;;;;0.93;0.70;;;;;;;16.33;100.00;92560.22;6281625;22;20192;-78
2023/10/20 04:05:51;;;;;;;0.70;0.70;;;;;;;16.23;100.00;92540.78;6310596;22;19999;-78
2023/10/20 04:08:18;;;;;;;1.60;0.85;;;;;;;16.19;100.00;92540.47;6310277;22;19999;-78
2023/10/20 04:10:43;;;;;;;1.48;0.93;;;;;;;16.21;100.00;92554.28;6310704;22;19995;-78
2023/10/20 04:13:10;;;;;;;0.85;0.85;;;;;;;16.11;100.00;92549.69;6310459;22;20472;-78
2023/10/20 04:15:36;;;;;;;3.17;0.80;;;;;;;15.99;100.00;92547.22;6283036;22;20007;-78
2023/10/20 04:18:04;;;;;;;1.85;1.10;;;;;;;15.84;100.00;92542.53;6311256;22;20010;-79
2023/10/20 04:20:29;;;;;;;3.95;1.17;;;;;;;15.71;100.00;92543.75;6310795;22;19999;-79
2023/10/20 04:22:55;;;;;;;2.63;1.08;;;;;;;15.54;100.00;92541.22;6311252;22;20003;-79
2023/10/20 04:25:22;;;;;;;1.55;1.13;;;;;;;15.30;100.00;92557.41;6310594;22;20024;-79
2023/10/20 04:27:57;;;;;;;2.13;1.30;;;;;;;15.12;100.00;92557.72;6310593;22;20002;-79
2023/10/20 04:52:05;;;;;;;2.13;1.90;;;;;;;14.18;100.00;92563.56;6310805;22;19995;-78
2023/10/20 05:07:52;;;;;;;2.25;1.70;;;;;;;14.25;100.00;92587.22;6310653;22;20003;-79
2023/10/20 05:10:19;;;;;;;3.83;1.85;;;;;;;14.18;100.00;92600.59;6283424;22;19999;-79
2023/10/20 05:12:48;;;;;;;3.00;2.40;;;;;;;14.11;100.00;92602.59;6310549;22;20210;-79
2023/10/20 05:15:14;;;;;;;3.25;2.20;;;;;;;14.02;100.00;92592.41;6282802;22;20011;-78
2023/10/20 05:17:40;;;;;;;4.78;2.35;;;;;;;14.00;100.00;92585.75;6310547;22;19998;-79
2023/10/20 05:20:12;;;;;;;4.15;2.45;;;;;;;13.96;100.00;92587.28;6311057;22;20025;-80
2023/10/20 05:22:39;;;;;;;3.72;2.53;;;;;;;13.89;100.00;92568.94;6282826;22;20012;-80
2023/10/20 05:25:06;;;;;;;2.28;1.70;;;;;;;14.01;100.00;92569.63;6282517;22;19999;-82
2023/10/20 05:27:32;;;;;;;4.50;1.98;;;;;;;14.00;100.00;92599.00;6309419;22;20062;-81
2023/10/20 05:29:57;;;;;;;3.47;1.77;;;;;;;13.94;100.00;92594.66;6310417;22;20060;-78
2023/10/20 05:32:22;;;;;;;4.13;1.48;;;;;;;14.06;100.00;92607.81;6309813;22;20003;-80
2023/10/20 05:34:50;;;;;;;5.05;1.13;;;;;;;13.78;100.00;92591.75;6310553;22;20362;-79
2023/10/20 05:37:15;;;;;;;2.03;1.02;;;;;;;13.82;100.00;92576.22;6283638;22;20051;-82
2023/10/20 05:39:40;;;;;;;1.60;1.35;;;;;;;13.65;100.00;92576.97;6311428;22;20550;-80
2023/10/20 05:42:06;;;;;;;1.40;1.30;;;;;;;13.37;100.00;92609.47;6310031;22;20092;-80
2023/10/20 05:44:32;;;;;;;3.63;1.55;;;;;;;13.34;100.00;92610.72;6310234;22;20022;-83
2023/10/20 05:46:57;;;;;;;1.38;1.30;;;;;;;13.22;100.00;92623.19;6307729;22;20058;-80
2023/10/20 05:49:23;;;;;;;5.55;1.80;;;;;;;13.17;100.00;92635.25;6310353;22;20006;-79
2023/10/20 05:51:51;;;;;;;2.40;1.70;;;;;;;13.07;100.00;92629.75;6310128;22;19995;-78
2023/10/20 05:54:17;;;;;;;1.88;1.70;;;;;;;13.07;100.00;92636.88;6311449;22;20428;-82
2023/10/20 05:56:42;;;;;;;1.45;1.35;;;;;;;12.96;100.00;92686.81;6309213;22;20030;-82
2023/10/20 05:59:08;;;;;;;2.53;1.70;;;;;;;12.90;100.00;92699.09;6310086;22;20300;-83
2023/10/20 06:01:33;;;;;;;1.75;1.60;;;;;;;12.88;100.00;92687.16;6308025;22;20309;-81
2023/10/20 06:03:59;;;;;;;1.73;1.35;;;;;;;12.86;100.00;92657.56;6281676;22;20042;-83
2023/10/20 06:06:24;;;;;;;3.28;1.80;;;;;;;12.82;100.00;92680.97;6308356;22;20309;-85
2023/10/20 06:08:49;;;;;;;2.70;2.10;;;;;;;12.74;100.00;92708.50;6308412;22;20390;-82
2023/10/20 06:11:15;;;;;;;2.17;1.95;;;;;;;12.68;100.00;92729.72;6282986;22;20098;-81
2023/10/20 06:13:41;;;;;;;2.95;1.80;;;;;;;12.65;100.00;92724.91;6282120;22;20074;-85
2023/10/20 06:16:10;;;;;;;4.22;1.60;;;;;;;12.63;100.00;92713.78;6282958;22;20014;-89
2023/10/20 06:18:37;;;;;;;2.38;1.88;;;;;;;12.65;100.00;92724.91;6310372;22;20003;-83
2023/10/20 06:21:11;;;;;;;2.42;2.10;;;;;;;12.64;100.00;92726.75;6310119;22;20003;-82
2023/10/20 06:23:36;;;;;;;2.47;1.70;;;;;;;12.66;100.00;92751.06;6310210;22;19995;-84
2023/10/20 06:26:02;;;;;;;2.40;1.67;;;;;;;12.63;100.00;92763.91;6309629;22;19999;-77
2023/10/20 06:28:27;;;;;;;1.33;1.25;;;;;;;12.63;100.00;92767.38;6308118;22;20677;-79
2023/10/20 06:30:54;;;;;;;1.30;1.30;;;;;;;12.66;100.00;92771.38;6309989;22;20346;-80
2023/10/20 06:33:19;;;;;;;1.88;1.40;;;;;;;12.63;100.00;92782.38;6309791;22;20002;-79
2023/10/20 06:35:52;;;;;;;1.50;1.40;;;;;;;12.62;100.00;92771.03;6281597;22;20003;-78
2023/10/20 06:38:30;;;;;;;1.50;1.40;;;;;;;12.64;100.00;92773.44;6309328;22;19995;-79
2023/10/20 06:40:56;;;;;;;2.83;1.40;;;;;;;12.64;100.00;92778.72;6308068;22;20344;-79
2023/10/20 06:43:21;;;;;;;2.97;1.50;;;;;;;12.68;100.00;92764.03;6309126;22;20006;-79
2023/10/20 06:45:55;;;;;;;1.75;1.27;;;;;;;12.69;100.00;92755.91;6308971;22;20016;-78
2023/10/20 06:48:20;;;;;;;1.48;0.93;;;;;;;12.64;100.00;92758.41;6308088;22;20006;-79
2023/10/20 06:50:46;;;;;;;1.25;1.00;;;;;;;12.65;100.00;92761.84;6307999;22;20297;-79
2023/10/20 06:53:11;;;;;;;2.55;1.40;;;;;;;12.73;100.00;92743.06;6308782;22;20006;-79
2023/10/20 06:55:41;;;;;;;1.42;1.30;;;;;;;12.71;100.00;92743.28;6308759;22;20014;-79
2023/10/20 06:58:06;;;;;;;2.47;1.25;;;;;;;12.67;100.00;92762.41;6308539;22;20021;-79
2023/10/20 07:00:32;;;;;;;1.60;1.50;;;;;;;12.72;100.00;92773.13;6308908;22;20336;-79
2023/10/20 07:02:57;;;;;;;3.35;1.98;;;;;;;12.69;100.00;92798.13;6308414;22;20141;-78
2023/10/20 07:05:23;;;;;;;2.17;1.98;;;;;;;12.66;100.00;92813.59;6275918;22;20030;-79
2023/10/20 07:07:50;;;;;;;2.60;2.03;;;;;;;12.66;100.00;92824.97;6278100;22;20018;-79
2023/10/20 07:10:17;;;;;;;2.92;2.30;;;;;;;12.66;100.00;92824.97;6277994;22;20003;-78
2023/10/20 07:12:43;;;;;;;2.88;2.08;;;;;;;12.64;100.00;92842.06;6277529;22;20003;-78
2023/10/20 07:15:09;;;;;;;3.70;2.00;;;;;;;12.70;100.00;92864.91;6277209;22;20011;-78
2023/10/20 07:17:34;;;;;;;1.98;1.80;;;;;;;12.81;100.00;92881.81;6279870;22;20026;-78
2023/10/20 07:20:04;;;;;;;1.77;1.67;;;;;;;13.11;100.00;92900.28;6277800;22;20027;-78
2023/10/20 07:22:31;;;;;;;3.33;2.47;;;;;;;12.95;100.00;92887.72;6279990;22;20000;-78
2023/10/20 07:24:57;;;;;;;4.85;3.05;;;;;;;12.77;100.00;92893.84;6280139;22;20000;-78
2023/10/20 07:27:23;;;;;;;8.13;3.20;;;;;;;13.07;100.00;92909.69;6278864;22;19991;-78
2023/10/20 07:29:48;;;;;;;3.70;2.97;;;;;;;12.80;100.00;92909.25;6279032;22;20008;-79
2023/10/20 07:32:14;;;;;;;4.60;3.50;;;;;;;12.71;100.00;92914.03;6278587;22;20014;-79
2023/10/20 07:34:39;;;;;;;3.55;2.53;;;;;;;12.69;100.00;92913.44;6279599;22;20014;-79
2023/10/20 07:37:06;;;;;;;3.33;3.03;;;;;;;12.68;100.00;92914.47;6279020;22;20067;-78
2023/10/20 07:39:33;;;;;;;3.53;3.00;;;;;;;12.70;100.00;92925.63;6279214;22;20023;-78
2023/10/20 07:41:59;;;;;;;2.85;2.65;;;;;;;12.67;100.00;92920.78;6280311;22;20042;-78
2023/10/20 07:44:24;;;;;;;2.15;2.03;;;;;;;12.67;100.00;92926.88;6279619;22;20465;-79
2023/10/20 07:46:50;;;;;;;2.17;1.98;;;;;;;12.73;100.00;92917.28;6278527;22;20275;-79
2023/10/20 07:49:16;;;;;;;2.35;1.83;;;;;;;12.82;100.00;92915.09;6279992;22;20003;-79
2023/10/20 07:51:41;;;;;;;1.80;1.65;;;;;;;12.73;100.00;92915.44;6280085;22;20000;-79
2023/10/20 07:54:08;;;;;;;1.58;1.48;;;;;;;12.72;100.00;92918.31;6280409;22;20003;-78
2023/10/20 07:56:34;;;;;;;2.08;1.63;;;;;;;12.71;100.00;92911.38;6280685;22;20003;-78
2023/10/20 07:59:00;;;;;;;1.83;1.70;;;;;;;12.69;100.00;92909.00;6281899;22;20013;-78
2023/10/20 08:01:25;;;;;;;2.22;1.90;;;;;;;12.69;100.00;92921.38;6281636;22;20094;-79
2023/10/20 08:03:52;;;;;;;2.63;1.77;;;;;;;12.68;100.00;92940.88;6291269;22;20040;-79
2023/10/20 08:06:18;;;;;;;1.90;1.70;;;;;;;12.66;100.00;92946.38;6310709;22;19991;-78
2023/10/20 08:08:44;;;;;;;4.03;1.80;;;;;;;12.67;100.00;92939.25;6312327;22;19995;-78
2023/10/20 08:11:10;;;;;;;2.85;2.03;;;;;;;12.66;100.00;92961.41;6311819;22;20473;-79
2023/10/20 08:13:37;;;;;;;4.45;1.92;;;;;;;12.65;100.00;92967.72;6311424;22;19999;-78
2023/10/20 08:16:06;;;;;;;3.00;1.77;;;;;;;12.64;100.00;92961.66;6311477;22;19999;-78
2023/10/20 08:18:34;;;;;;;5.13;2.60;;;;;;;12.69;100.00;92960.97;6310556;22;20003;-78
2023/10/20 08:21:07;;;;;;;2.65;2.45;;;;;;;12.84;100.00;92955.31;6309488;22;20424;-78
2023/10/20 08:23:39;;;;;;;4.47;2.40;;;;;;;12.70;100.00;92952.81;6310696;22;20003;-78
2023/10/20 08:26:05;;;;;;;2.70;2.17;;;;;;;12.67;100.00;92965.66;6309409;22;19995;-78
2023/10/20 08:28:31;;;;;;;2.00;1.73;;;;;;;12.67;100.00;92963.00;6310191;22;20022;-84
2023/10/20 08:31:05;;;;;;;2.30;1.60;;;;;;;12.64;100.00;92964.28;6283076;22;20007;-84
2023/10/20 08:33:30;;;;;;;1.40;1.30;;;;;;;12.68;100.00;92965.44;6284383;22;19995;-84
2023/10/20 08:35:56;;;;;;;2.13;2.00;;;;;;;12.70;100.00;92962.56;6309342;22;20028;-83
2023/10/20 08:38:21;;;;;;;2.40;2.20;;;;;;;12.68;100.00;92957.53;6310533;22;20555;-84
2023/10/20 08:40:47;;;;;;;2.30;1.60;;;;;;;12.71;100.00;92954.44;6309937;22;20010;-84
2023/10/20 08:43:13;;;;;;;1.80;1.70;;;;;;;12.70;100.00;92930.88;6310366;22;19999;-84
2023/10/20 08:45:39;;;;;;;1.67;1.50;;;;;;;12.65;100.00;92925.47;6309843;22;19995;-85
2023/10/20 08:48:05;;;;;;;2.72;1.63;;;;;;;12.60;100.00;92926.97;6310738;22;20317;-84
2023/10/20 08:50:32;;;;;;;4.85;2.20;;;;;;;12.60;100.00;92932.25;6310207;22;20031;-84
2023/10/20 08:53:01;;;;;;;2.70;1.55;;;;;;;12.63;100.00;92923.09;6310772;22;19999;-84
2023/10/20 08:55:27;;;;;;;2.10;1.73;;;;;;;12.60;100.00;92926.16;6282936;22;20003;-85
2023/10/20 08:57:52;;;;;;;2.95;1.17;;;;;;;12.61;100.00;92923.28;6308887;22;20009;-85
2023/10/20 09:00:20;;;;;;;1.15;1.10;;;;;;;12.59;100.00;92924.53;6309941;22;20024;-86
2023/10/20 09:02:49;;;;;;;2.25;1.55;;;;;;;12.59;100.00;92909.50;6310985;22;20010;-86
2023/10/20 09:05:24;;;;;;;2.05;1.67;;;;;;;12.61;100.00;92911.94;6312949;22;20019;-85
2023/10/20 09:07:53;;;;;;;1.80;1.65;;;;;;;12.63;100.00;92919.63;6314259;22;20318;-85
2023/10/20 09:10:18;;;;;;;1.88;1.40;;;;;;;12.60;100.00;92919.03;6286218;22;20003;-85
2023/10/20 09:12:44;;;;;;;1.45;1.35;;;;;;;12.61;100.00;92922.50;6310675;22;20010;-85
2023/10/20 09:15:11;;;;;;;2.35;1.90;;;;;;;12.59;100.00;92929.81;6307973;22;20401;-85
2023/10/20 09:17:36;;;;;;;3.58;1.95;;;;;;;12.48;100.00;92939.28;6309822;22;20007;-85
2023/10/20 09:20:12;;;;;;;3.95;2.55;;;;;;;12.45;100.00;92950.28;6311144;22;20064;-85
2023/10/20 09:22:38;;;;;;;2.40;2.13;;;;;;;12.48;100.00;92946.41;6310585;22;19999;-85
2023/10/20 09:25:09;;;;;;;3.70;3.40;;;;;;;12.50;100.00;92945.16;6310161;22;20002;-85
2023/10/20 09:27:37;;;;;;;4.05;2.67;;;;;;;12.50;100.00;92941.72;6309025;22;20026;-85
2023/10/20 09:30:11;;;;;;;3.85;3.60;;;;;;;12.46;100.00;92946.59;6309849;22;20007;-85
2023/10/20 09:32:39;;;;;;;3.75;3.45;;;;;;;12.47;100.00;92945.59;6309157;22;19999;-84
2023/10/20 09:35:04;;;;;;;3.55;2.55;;;;;;;12.46;100.00;92970.34;6309083;22;20436;-85
2023/10/20 09:37:31;;;;;;;1.90;1.80;;;;;;;12.45;100.00;92966.94;6257070;22;20027;-84
2023/10/20 09:40:24;;;;;;;1.77;1.67;;;;;;;12.46;100.00;92952.72;6310625;22;19999;-85
2023/10/20 09:43:11;;;;;;;2.97;2.00;;;;;;;12.49;100.00;92962.03;6303786;22;20007;-85
2023/10/20 09:45:42;;;;;;;2.35;1.90;;;;;;;12.53;100.00;92967.66;6308829;22;19999;-85
2023/10/20 09:48:18;;;;;;;4.32;1.95;;;;;;;12.55;100.00;92966.41;6309852;22;20068;-85
2023/10/20 09:50:46;;;;;;;5.97;5.38;;;;;;;12.53;100.00;92967.66;6309144;22;20067;-85
2023/10/20 09:53:15;;;;;;;4.90;4.40;;;;;;;12.49;100.00;92971.75;6283132;22;20003;-84
2023/10/20 09:55:44;;;;;;;3.67;3.38;;;;;;;12.45;100.00;92995.94;6308977;22;20004;-85
2023/10/20 09:58:11;;;;;;;2.60;2.50;;;;;;;12.43;100.00;93005.09;6309149;22;20001;-85
2023/10/20 10:00:37;;;;;;;2.65;2.45;;;;;;;12.37;100.00;93013.91;6309667;22;20371;-85
2023/10/20 10:03:03;;;;;;;2.72;2.40;;;;;;;12.36;100.00;93028.13;6310424;22;19999;-84
2023/10/20 10:05:30;;;;;;;2.75;2.53;;;;;;;12.34;100.00;93032.81;6309236;22;20022;-84
2023/10/20 10:08:08;;;;;;;3.40;3.10;;;;;;;12.34;100.00;93038.09;6310457;22;20074;-84
2023/10/20 10:10:37;;;;;;;3.40;3.10;;;;;;;12.35;100.00;93031.78;6310175;22;19999;-85
2023/10/20 10:13:06;;;;;;;2.25;2.13;;;;;;;12.39;100.00;93025.03;6311631;22;20413;-85
2023/10/20 10:15:39;;;;;;;2.80;1.90;;;;;;;12.37;100.00;93027.09;6309756;22;20014;-86
2023/10/20 10:18:12;;;;;;;2.17;2.08;;;;;;;12.33;100.00;93016.16;6310380;22;20297;-87
2023/10/20 10:20:43;;;;;;;21.83;19.83;;;;;;;12.38;100.00;93010.22;6310526;22;19995;-86
2023/10/20 10:23:12;;;;;;;25.48;22.92;;;;;;;12.37;100.00;92982.25;6310792;22;20060;-86
2023/10/20 10:25:47;;;;;;;2.60;2.33;;;;;;;12.51;100.00;92996.91;6309749;22;20074;-88
2023/10/20 10:28:17;;;;;;;2.80;2.60;;;;;;;12.50;100.00;93005.84;6309150;22;19999;-85
2023/10/20 10:30:47;;;;;;;2.83;2.30;;;;;;;12.29;100.00;93005.25;6310372;22;19999;-86
2023/10/20 10:33:18;;;;;;;9.95;8.40;;;;;;;12.36;100.00;92983.28;6282666;22;20019;-84
2023/10/20 10:35:44;;;;;;;4.10;3.70;;;;;;;12.38;100.00;93002.31;6309287;22;20003;-78
2023/10/20 10:38:22;;;;;;;3.05;2.85;;;;;;;12.34;100.00;93006.44;6311774;22;20370;-79
2023/10/20 10:40:53;;;;;;;2.25;2.15;;;;;;;12.27;100.00;93009.94;6313704;22;19995;-78
2023/10/20 10:43:22;;;;;;;2.70;2.50;;;;;;;12.31;100.00;93010.28;6309636;22;20010;-78
2023/10/20 10:45:52;;;;;;;4.78;4.43;;;;;;;12.35;100.00;93015.94;6282386;22;19991;-78
2023/10/20 10:48:18;;;;;;;5.80;5.40;;;;;;;12.27;100.00;93023.13;6282969;22;20098;-78
2023/10/20 10:50:45;;;;;;;4.22;2.40;;;;;;;12.24;100.00;93015.63;6308857;22;19999;-78
2023/10/20 10:53:12;;;;;;;1.80;1.70;;;;;;;12.13;100.00;93013.72;6309856;22;20337;-78
2023/10/20 10:55:38;;;;;;;3.80;3.50;;;;;;;12.11;100.00;93008.66;6309374;22;20328;-78
2023/10/20 10:58:12;;;;;;;2.10;1.90;;;;;;;12.20;100.00;93017.09;6309549;22;20120;-79
2023/10/20 11:00:39;;;;;;;1.63;1.60;;;;;;;12.24;100.00;93009.56;6307776;22;20070;-78
2023/10/20 11:03:06;;;;;;;2.25;1.70;;;;;;;12.18;100.00;93003.31;6280568;22;20003;-78
2023/10/20 11:05:32;;;;;;;1.88;1.77;;;;;;;12.10;100.00;93000.97;6306718;22;20019;-78
2023/10/20 11:08:03;;;;;;;3.20;3.00;;;;;;;12.12;100.00;92998.94;6309082;22;19995;-78
2023/10/20 11:10:34;;;;;;;4.47;4.18;;;;;;;12.19;100.00;92999.66;6308520;22;20330;-78
2023/10/20 11:13:08;;;;;;;4.03;3.72;;;;;;;12.20;100.00;92987.28;6308367;22;20072;-78
2023/10/20 11:15:35;;;;;;;3.13;2.92;;;;;;;12.26;100.00;92984.56;6281490;22;20003;-78
2023/10/20 11:18:02;;;;;;;5.03;4.63;;;;;;;12.32;100.00;92981.06;6307277;22;20029;-78
2023/10/20 11:20:29;;;;;;;4.30;3.58;;;;;;;12.35;100.00;92976.38;6304731;22;20003;-78
2023/10/20 11:22:55;;;;;;;4.05;3.75;;;;;;;12.41;100.00;92978.13;6278749;22;20387;-78
2023/10/20 11:25:22;;;;;;;4.10;3.80;;;;;;;12.50;100.00;92995.31;6304647;22;20148;-78
2023/10/20 11:27:55;;;;;;;2.05;1.95;;;;;;;12.53;100.00;93002.78;6304696;22;20010;-78
2023/10/20 11:30:37;;;;;;;1.67;1.58;;;;;;;12.60;100.00;93050.22;6305185;22;20125;-79
2023/10/20 11:33:05;;;;;;;2.42;2.22;;;;;;;12.79;100.00;93064.22;6306034;22;20764;-79
2023/10/20 11:35:34;;;;;;;2.20;2.10;;;;;;;12.93;100.00;93066.69;6303361;22;20003;-79
2023/10/20 11:38:00;;;;;;;1.65;1.55;;;;;;;13.06;100.00;93078.97;6305115;22;20003;-78
2023/10/20 11:40:27;;;;;;;2.05;1.85;;;;;;;13.25;100.00;93091.09;6305151;22;20023;-79
2023/10/20 11:42:53;;;;;;;2.17;2.08;;;;;;;13.35;100.00;93098.50;6277634;22;20052;-79
2023/10/20 11:45:22;;;;;;;2.20;2.10;;;;;;;13.31;100.00;93108.72;6304469;22;19999;-79
2023/10/20 11:47:47;;;;;;;3.35;3.08;;;;;;;13.21;100.00;93124.28;6304792;22;20244;-79
2023/10/20 11:50:15;;;;;;;3.05;2.85;;;;;;;13.24;100.00;93138.88;6303650;22;20082;-79
2023/10/20 11:52:42;;;;;;;3.70;3.40;;;;;;;13.30;100.00;93140.63;6304509;22;19999;-79
2023/10/20 11:55:08;;;;;;;2.10;2.00;;;;;;;13.25;100.00;93149.22;6304629;22;19995;-80
2023/10/20 11:57:40;;;;;;;1.63;1.52;;;;;;;13.23;100.00;93163.69;6303115;22;20018;-79
2023/10/20 12:00:08;;;;;;;1.63;1.60;;;;;;;13.11;100.00;93147.78;6305710;22;20014;-79